Time;durP1;ratioP1;P1;durP2;ratioP2;P2;SDS_P1;SDS_P2;PMS_P1;PMS_P2;Temp;Humidity;BMP_temperature;BMP_pressure;BME280_temperature;BME280_humidity;BME280_pressure;Samples;Min_cycle;Max_cycle;Signal;HPM_P1;HPM_P2
2023/04/24 00:00:26;;;;;;;14.83;11.83;;;13.40;99.90;;;;;;2602982;54;20057;31
2023/04/24 00:03:10;;;;;;;16.65;12.35;;;13.40;99.90;;;;;;2602615;47;21294;31
2023/04/24 00:05:58;;;;;;;17.10;11.93;;;13.40;99.90;;;;;;2775388;31;21666;31
2023/04/24 00:11:30;;;;;;;12.90;10.33;;;13.40;99.90;;;;;;2602865;54;20567;31
2023/04/24 00:14:23;;;;;;;16.57;12.20;;;13.40;99.90;;;;;;2701429;39;20697;31
2023/04/24 00:17:14;;;;;;;13.80;11.30;;;13.40;99.90;;;;;;2603713;54;20136;31
2023/04/24 00:20:04;;;;;;;18.45;11.93;;;13.50;99.90;;;;;;2603847;54;20944;31
2023/04/24 00:25:46;;;;;;;16.27;13.00;;;13.50;99.90;;;;;;2603132;54;20077;31
2023/04/24 00:28:25;;;;;;;16.88;11.77;;;13.40;99.90;;;;;;2622153;46;20029;31
2023/04/24 00:33:43;;;;;;;19.52;14.52;;;13.40;99.90;;;;;;2603294;54;20034;31
2023/04/24 00:36:37;;;;;;;16.48;13.70;;;13.30;99.90;;;;;;2603550;54;20121;31
2023/04/24 00:39:15;;;;;;;16.73;13.47;;;13.30;99.90;;;;;;2603918;54;20001;31
2023/04/24 00:42:02;;;;;;;16.90;13.57;;;13.30;99.90;;;;;;2603978;54;20850;31
2023/04/24 00:44:45;;;;;;;16.00;13.85;;;13.30;99.90;;;;;;2603755;54;20839;31
2023/04/24 00:47:24;;;;;;;18.38;13.35;;;13.20;99.90;;;;;;2622059;46;20937;31
2023/04/24 00:50:03;;;;;;;20.50;13.87;;;13.20;99.90;;;;;;2603687;54;19934;31
2023/04/24 00:52:55;;;;;;;17.23;13.53;;;13.20;99.90;;;;;;2702282;39;20556;31
2023/04/24 00:55:37;;;;;;;17.83;13.52;;;13.20;99.90;;;;;;2603658;54;20030;31
2023/04/24 00:58:19;;;;;;;18.67;14.07;;;13.20;99.90;;;;;;2622422;46;19934;31
2023/04/24 01:00:59;;;;;;;19.03;14.43;;;13.20;99.90;;;;;;2603771;54;20124;31
2023/04/24 01:03:39;;;;;;;18.95;14.60;;;13.10;99.90;;;;;;2621809;46;20031;31
2023/04/24 01:06:15;;;;;;;20.55;14.40;;;13.10;99.90;;;;;;2603066;54;20913;31
2023/04/24 01:09:04;;;;;;;19.30;14.15;;;13.20;99.90;;;;;;2603804;54;20794;31
2023/04/24 01:11:49;;;;;;;17.85;14.20;;;13.10;99.90;;;;;;2603609;54;20022;31
2023/04/24 01:14:28;;;;;;;17.10;14.82;;;13.10;99.90;;;;;;2603501;54;20022;31
2023/04/24 01:17:07;;;;;;;19.42;14.82;;;13.10;99.90;;;;;;2603473;54;20022;31
2023/04/24 01:19:44;;;;;;;18.33;14.52;;;13.10;99.90;;;;;;2622140;46;20796;31
2023/04/24 01:22:25;;;;;;;20.23;16.48;;;13.10;99.90;;;;;;2622008;46;20641;31
2023/04/24 01:25:02;;;;;;;20.65;16.85;;;13.00;99.90;;;;;;2602772;54;20027;31
2023/04/24 01:27:42;;;;;;;22.53;17.43;;;13.00;99.90;;;;;;2618470;46;20860;31
2023/04/24 01:30:36;;;;;;;19.45;14.75;;;13.00;99.90;;;;;;2613948;46;20026;31
2023/04/24 01:33:21;;;;;;;18.40;16.30;;;13.00;99.90;;;;;;2773265;31;21428;31
2023/04/24 01:39:07;;;;;;;18.60;14.60;;;13.10;99.90;;;;;;2603533;54;20034;31
2023/04/24 01:41:50;;;;;;;21.73;16.90;;;13.10;99.90;;;;;;2702055;39;21339;31
2023/04/24 01:44:41;;;;;;;18.10;12.90;;;13.10;99.90;;;;;;2621968;46;20050;31
2023/04/24 01:47:19;;;;;;;16.75;14.85;;;13.10;99.90;;;;;;2603627;54;20081;31
2023/04/24 01:50:03;;;;;;;17.92;13.35;;;13.10;99.90;;;;;;2603630;54;20053;31
2023/04/24 01:52:51;;;;;;;17.43;14.00;;;13.20;99.90;;;;;;2603420;54;20782;31
2023/04/24 01:55:28;;;;;;;16.52;11.98;;;13.20;99.90;;;;;;2603369;54;20081;31
2023/04/24 01:58:12;;;;;;;14.38;12.68;;;13.20;99.90;;;;;;2602861;54;20857;31
2023/04/24 02:00:58;;;;;;;17.55;13.95;;;13.20;99.90;;;;;;2603475;54;21305;31
2023/04/24 02:03:37;;;;;;;19.88;14.85;;;13.20;99.90;;;;;;2609168;46;21307;31
2023/04/24 02:06:42;;;;;;;16.97;14.07;;;13.30;99.90;;;;;;2602770;54;20585;31
2023/04/24 02:09:34;;;;;;;20.70;14.23;;;13.20;99.90;;;;;;2621885;46;20026;31
2023/04/24 02:12:23;;;;;;;19.20;14.00;;;13.20;99.90;;;;;;2603449;54;20030;31
2023/04/24 02:15:12;;;;;;;21.52;15.10;;;13.20;99.90;;;;;;2603222;54;20878;31
2023/04/24 02:18:08;;;;;;;17.27;14.80;;;13.20;99.90;;;;;;2603254;46;21850;31
2023/04/24 02:23:41;;;;;;;18.50;15.00;;;13.20;99.90;;;;;;2602652;54;20918;31
2023/04/24 02:26:31;;;;;;;17.95;14.73;;;13.10;99.90;;;;;;2602933;54;21002;31
2023/04/24 02:32:22;;;;;;;18.98;14.68;;;13.10;99.90;;;;;;2603459;54;20029;31
2023/04/24 02:35:02;;;;;;;19.08;15.52;;;13.00;99.90;;;;;;2603013;54;20121;31
2023/04/24 02:37:38;;;;;;;20.50;15.48;;;13.00;99.90;;;;;;2701770;39;20540;31
2023/04/24 02:40:20;;;;;;;19.02;13.82;;;13.00;99.90;;;;;;2603511;54;20085;31
2023/04/24 02:43:05;;;;;;;15.95;13.35;;;13.00;99.90;;;;;;2603528;54;20026;31
2023/04/24 02:45:42;;;;;;;16.63;13.68;;;13.00;99.90;;;;;;2602540;54;20049;31
2023/04/24 02:48:26;;;;;;;17.98;14.32;;;13.00;99.90;;;;;;2603128;54;20643;31
2023/04/24 02:51:03;;;;;;;16.92;13.82;;;12.90;99.90;;;;;;2603317;54;20149;31
2023/04/24 02:53:40;;;;;;;20.80;13.80;;;12.90;99.90;;;;;;2603469;54;20033;31
2023/04/24 02:56:20;;;;;;;16.98;14.38;;;12.90;99.90;;;;;;2602420;54;20844;31
2023/04/24 02:58:59;;;;;;;19.08;14.18;;;13.00;99.90;;;;;;2607227;46;20850;31
2023/04/24 03:01:46;;;;;;;16.92;13.00;;;13.00;99.90;;;;;;2603189;54;20821;31
2023/04/24 03:04:52;;;;;;;;;;;;;;;;;;;;;
2023/04/24 03:11:29;;;;;;;21.10;14.35;;;13.00;99.90;;;;;;2603368;54;20088;31
2023/04/24 03:20:38;;;;;;;13.80;11.40;;;13.00;99.90;;;;;;2603404;54;20028;31
2023/04/24 03:26:40;;;;;;;13.57;11.93;;;13.00;99.90;;;;;;2606935;46;20859;31
2023/04/24 03:29:38;;;;;;;15.82;12.32;;;13.00;99.90;;;;;;2603131;54;19934;31
2023/04/24 03:32:17;;;;;;;14.05;12.45;;;13.00;99.90;;;;;;2603068;54;20883;31
2023/04/24 03:34:56;;;;;;;17.52;12.88;;;13.00;99.90;;;;;;2603097;54;20841;31
2023/04/24 03:37:33;;;;;;;19.65;14.10;;;13.10;99.90;;;;;;2701509;39;20569;31
2023/04/24 03:40:33;;;;;;;17.75;14.15;;;13.00;99.90;;;;;;2603115;54;20023;31
2023/04/24 03:43:34;;;;;;;18.77;14.73;;;13.00;99.90;;;;;;2603209;54;20612;31
2023/04/24 03:46:16;;;;;;;17.70;14.40;;;13.00;99.90;;;;;;2772665;31;21510;31
2023/04/24 03:49:08;;;;;;;20.50;15.25;;;13.00;99.90;;;;;;2603005;54;20053;31
2023/04/24 03:54:47;;;;;;;23.38;16.30;;;12.90;99.90;;;;;;2602582;54;20881;31
2023/04/24 03:57:26;;;;;;;21.55;16.10;;;12.90;99.90;;;;;;2700869;39;20621;31
2023/04/24 04:00:34;;;;;;;19.25;16.98;;;12.90;99.90;;;;;;2603042;54;20029;31
2023/04/24 04:03:53;;;;;;;18.70;15.75;;;12.80;99.90;;;;;;2602932;54;20774;31
2023/04/24 04:06:42;;;;;;;18.13;13.43;;;12.80;99.90;;;;;;2603176;54;20357;31
2023/04/24 04:09:21;;;;;;;;;;;12.70;99.90;;;;;;2602847;54;20040;31
2023/04/24 04:11:57;;;;;;;16.55;12.45;;;12.80;99.90;;;;;;2602391;54;20731;31
2023/04/24 04:14:37;;;;;;;18.60;15.40;;;12.80;99.90;;;;;;2602125;54;20892;31
2023/04/24 04:17:40;;;;;;;20.50;14.60;;;12.80;99.90;;;;;;2602949;54;19982;31
2023/04/24 04:20:15;;;;;;;18.80;13.43;;;12.70;99.90;;;;;;2602963;54;20042;31
2023/04/24 04:23:06;;;;;;;19.13;15.23;;;12.70;99.90;;;;;;2701584;39;20509;31
2023/04/24 04:26:35;;;;;;;20.42;15.27;;;12.70;99.90;;;;;;2602949;54;20540;31
2023/04/24 04:29:16;;;;;;;19.67;16.20;;;12.80;99.90;;;;;;2606528;47;20085;31
2023/04/24 04:31:59;;;;;;;20.15;15.85;;;12.80;99.90;;;;;;2701409;39;20580;31
2023/04/24 04:34:37;;;;;;;20.23;16.67;;;12.80;99.90;;;;;;2602916;54;20831;31
2023/04/24 04:37:15;;;;;;;21.42;17.10;;;12.80;99.90;;;;;;2621624;47;20242;31
2023/04/24 04:40:19;;;;;;;19.85;15.80;;;12.90;99.90;;;;;;2603088;54;20825;31
2023/04/24 04:43:09;;;;;;;19.63;15.95;;;13.00;99.90;;;;;;2602983;54;20834;31
2023/04/24 04:45:51;;;;;;;24.30;16.92;;;13.10;99.90;;;;;;2602902;54;20022;31
2023/04/24 04:48:54;;;;;;;20.17;17.48;;;13.30;99.90;;;;;;2602779;54;21348;31
2023/04/24 04:51:31;;;;;;;21.02;15.10;;;13.50;99.90;;;;;;2601993;54;20027;31
2023/04/24 04:54:13;;;;;;;18.38;15.23;;;13.70;99.90;;;;;;2602844;54;20656;31
2023/04/24 04:57:07;;;;;;;17.00;12.90;;;13.90;99.90;;;;;;2603141;54;20608;31
2023/04/24 05:00:01;;;;;;;17.30;13.50;;;14.10;99.90;;;;;;2603295;54;20026;31
2023/04/24 05:02:54;;;;;;;18.23;14.57;;;14.30;99.90;;;;;;2773735;31;20624;31
2023/04/24 05:05:51;;;;;;;15.57;12.02;;;14.40;99.90;;;;;;2603113;54;21308;31
2023/04/24 05:08:29;;;;;;;23.60;14.95;;;14.40;99.90;;;;;;2720672;39;20422;31
2023/04/24 05:11:27;;;;;;;17.40;12.23;;;14.40;99.90;;;;;;2603716;54;20894;31
2023/04/24 05:14:08;;;;;;;16.80;13.05;;;14.60;99.90;;;;;;2603761;54;20110;31
2023/04/24 05:16:52;;;;;;;16.63;12.70;;;14.70;99.90;;;;;;2603642;54;20046;31
2023/04/24 05:19:37;;;;;;;18.75;13.43;;;14.90;99.90;;;;;;2602640;54;20436;31
2023/04/24 06:14:02;;;;;;;13.20;7.55;;;15.30;99.90;;;;;;2611560;54;20031;31
2023/04/24 06:34:42;;;;;;;7.65;5.70;;;15.60;99.90;;;;;;2603295;54;20129;31
2023/04/24 06:37:33;;;;;;;10.27;5.93;;;15.60;99.90;;;;;;2602517;54;20982;31
2023/04/24 06:40:24;;;;;;;8.60;5.95;;;15.60;99.90;;;;;;2621753;46;20031;31
2023/04/24 06:43:20;;;;;;;11.10;5.75;;;15.60;99.90;;;;;;2603386;54;20022;31
2023/04/24 06:46:22;;;;;;;10.35;5.70;;;15.70;99.90;;;;;;2603214;54;20022;31
2023/04/24 06:52:22;;;;;;;11.98;6.60;;;15.60;99.90;;;;;;2603211;54;20831;31
2023/04/24 06:55:59;;;;;;;;;;;;;;;;;;;;;
2023/04/24 07:08:48;;;;;;;6.90;5.40;;;15.90;99.90;;;;;;2621972;46;20033;31
2023/04/24 07:12:32;;;;;;;7.90;6.13;;;16.00;99.90;;;;;;2603197;54;20919;31
2023/04/24 07:24:51;;;;;;;12.00;6.13;;;16.30;99.90;;;;;;2609337;46;20030;31
2023/04/24 07:27:28;;;;;;;10.45;5.43;;;16.40;99.90;;;;;;2603349;54;19960;31
2023/04/24 07:30:15;;;;;;;;;;;16.50;99.90;;;;;;2603668;54;20137;31
2023/04/24 07:32:50;;;;;;;6.90;5.53;;;16.60;99.90;;;;;;2603054;54;19951;31
2023/04/24 07:35:40;;;;;;;5.50;4.73;;;16.60;99.90;;;;;;2603316;54;19935;31
2023/04/24 07:38:20;;;;;;;6.97;4.53;;;16.60;99.90;;;;;;2603012;54;20370;31
2023/04/24 07:40:59;;;;;;;8.53;4.60;;;16.70;99.90;;;;;;2621978;46;20031;31
2023/04/24 07:43:39;;;;;;;6.72;4.70;;;16.70;99.90;;;;;;2603357;54;20053;31
2023/04/24 07:46:16;;;;;;;8.02;5.15;;;16.80;99.90;;;;;;2603078;54;20072;31
2023/04/24 07:52:14;;;;;;;7.93;4.55;;;17.00;99.90;;;;;;2603141;54;20035;31
2023/04/24 07:55:01;;;;;;;7.35;4.50;;;17.10;99.90;;;;;;2602257;54;19958;31
2023/04/24 07:57:42;;;;;;;7.85;5.10;;;17.20;99.90;;;;;;2602875;54;20088;31
2023/04/24 08:49:52;;;;;;;5.88;3.75;;;17.00;99.90;;;;;;2607256;46;20984;31
2023/04/24 08:55:20;;;;;;;5.10;4.10;;;17.00;99.90;;;;;;2603234;54;20045;31
2023/04/24 08:57:57;;;;;;;4.00;3.55;;;17.00;99.90;;;;;;2622179;46;20101;31
2023/04/24 09:00:34;;;;;;;4.60;3.65;;;17.10;99.90;;;;;;2622321;46;20030;31
2023/04/24 09:03:16;;;;;;;4.18;2.72;;;17.20;99.90;;;;;;2701342;39;20509;31
2023/04/24 09:06:05;;;;;;;5.20;3.45;;;17.30;99.90;;;;;;2613808;46;20806;31
2023/04/24 09:08:44;;;;;;;3.70;3.10;;;17.40;99.90;;;;;;2603446;54;21310;31
2023/04/24 09:11:24;;;;;;;3.42;2.72;;;17.50;99.90;;;;;;2603606;54;20760;31
2023/04/24 09:14:17;;;;;;;4.35;2.95;;;17.50;99.90;;;;;;2603600;54;20866;31
2023/04/24 09:19:24;;;;;;;4.55;3.00;;;17.60;99.90;;;;;;2621787;46;20935;31
2023/04/24 09:22:17;;;;;;;5.20;2.88;;;17.70;99.90;;;;;;2702208;39;20535;31
2023/04/24 09:25:06;;;;;;;3.50;3.20;;;17.90;99.90;;;;;;2622027;46;20173;31
2023/04/24 09:30:21;;;;;;;4.47;3.15;;;18.60;99.90;;;;;;2603593;54;20783;31
2023/04/24 09:45:49;;;;;;;3.92;3.22;;;20.60;99.90;;;;;;2601163;54;20014;31
2023/04/24 09:48:41;;;;;;;4.47;3.45;;;20.60;99.90;;;;;;2603505;54;20097;31
2023/04/24 09:51:23;;;;;;;4.30;3.57;;;20.60;99.90;;;;;;2603626;54;20879;31
2023/04/24 09:57:12;;;;;;;6.00;4.20;;;20.30;99.90;;;;;;2603188;54;21695;31
2023/04/24 09:59:59;;;;;;;4.13;3.72;;;20.20;99.90;;;;;;2607562;46;20881;31
2023/04/24 10:03:05;;;;;;;5.55;3.60;;;20.10;99.90;;;;;;2603902;54;20084;31
2023/04/24 10:05:43;;;;;;;3.85;3.45;;;19.90;99.90;;;;;;2622047;46;20970;31
2023/04/24 10:17:55;;;;;;;4.40;3.55;;;19.40;99.90;;;;;;2603167;54;21578;31
2023/04/24 10:20:37;;;;;;;4.05;3.65;;;19.30;99.90;;;;;;2603497;54;20867;31
2023/04/24 10:23:28;;;;;;;4.45;3.65;;;19.10;99.90;;;;;;2621800;46;20045;31
2023/04/24 10:29:28;;;;;;;5.32;3.45;;;18.90;99.90;;;;;;2602698;54;20034;31
2023/04/24 10:32:18;;;;;;;5.57;3.95;;;18.80;99.90;;;;;;2603491;54;20900;31
2023/04/24 10:35:00;;;;;;;5.60;3.95;;;18.70;99.90;;;;;;2603434;54;20018;31
2023/04/24 10:37:59;;;;;;;4.43;3.60;;;18.60;99.90;;;;;;2603510;54;20034;31
2023/04/24 10:40:40;;;;;;;7.30;4.10;;;18.50;99.90;;;;;;2621860;46;20042;31
2023/04/24 10:43:24;;;;;;;4.63;3.70;;;18.50;99.90;;;;;;2603331;54;20030;31
2023/04/24 10:46:10;;;;;;;8.15;3.92;;;18.50;99.90;;;;;;2603255;54;20038;31
2023/04/24 10:55:25;;;;;;;;;;;19.10;99.90;;;;;;2622107;46;20129;31
2023/04/24 10:58:40;;;;;;;4.00;3.50;;;19.30;99.90;;;;;;2602740;54;20778;31
2023/04/24 11:05:11;;;;;;;5.30;3.88;;;19.60;99.90;;;;;;2602911;54;20030;31
2023/04/24 11:11:37;;;;;;;5.13;3.60;;;19.20;99.90;;;;;;2602590;54;20053;31
2023/04/24 11:14:24;;;;;;;6.30;3.25;;;19.10;99.90;;;;;;2603372;54;20022;31
2023/04/24 11:17:03;;;;;;;4.30;3.70;;;19.00;99.90;;;;;;2701804;39;20493;31
2023/04/24 11:20:11;;;;;;;5.05;3.78;;;18.80;99.90;;;;;;2621576;46;20038;31
2023/04/24 11:25:38;;;;;;;6.20;3.45;;;18.80;99.90;;;;;;2603093;54;20952;31
2023/04/24 11:28:37;;;;;;;4.97;2.97;;;18.70;99.90;;;;;;2602886;54;20031;31
2023/04/24 11:31:15;;;;;;;3.25;2.80;;;18.90;99.90;;;;;;2603419;54;20030;31
2023/04/24 11:33:59;;;;;;;3.90;2.37;;;18.90;99.90;;;;;;2603218;54;20578;31
2023/04/24 11:36:38;;;;;;;2.83;2.50;;;19.00;99.90;;;;;;2603255;54;20250;31
2023/04/24 11:39:15;;;;;;;3.83;2.78;;;19.10;99.90;;;;;;2621251;46;20031;31
2023/04/24 11:41:52;;;;;;;3.63;3.10;;;19.10;99.90;;;;;;2621757;46;20030;31
2023/04/24 11:44:33;;;;;;;4.65;3.13;;;19.20;99.90;;;;;;2603110;54;20246;31
2023/04/24 11:47:08;;;;;;;4.10;2.75;;;19.20;99.90;;;;;;2603053;54;20775;31
2023/04/24 11:49:46;;;;;;;4.40;2.80;;;19.20;99.90;;;;;;2603386;54;20250;31
2023/04/24 11:52:23;;;;;;;5.60;2.50;;;19.30;99.90;;;;;;2603240;54;20867;31
2023/04/24 11:55:03;;;;;;;3.80;2.80;;;19.40;99.90;;;;;;2603186;54;20093;31
2023/04/24 11:57:44;;;;;;;4.45;3.50;;;19.60;99.90;;;;;;2603188;54;20054;31
2023/04/24 12:00:33;;;;;;;5.90;3.90;;;19.70;99.90;;;;;;2701528;39;21502;31
2023/04/24 12:03:24;;;;;;;4.35;3.53;;;19.90;99.90;;;;;;2621685;46;20254;31
2023/04/24 12:06:14;;;;;;;6.30;3.95;;;20.00;99.90;;;;;;2602881;54;21578;31
2023/04/24 12:08:52;;;;;;;6.20;3.57;;;20.00;99.90;;;;;;2621831;47;20070;31
2023/04/24 12:11:33;;;;;;;4.43;3.30;;;20.00;99.90;;;;;;2604039;54;20947;31
2023/04/24 12:14:16;;;;;;;4.85;3.60;;;20.00;99.90;;;;;;2622115;46;20053;31
2023/04/24 12:16:57;;;;;;;3.70;3.10;;;19.90;99.90;;;;;;2702162;39;21479;31
2023/04/24 12:19:36;;;;;;;4.10;2.80;;;19.90;99.90;;;;;;2702291;39;21905;31
2023/04/24 12:22:14;;;;;;;3.78;2.90;;;19.80;99.90;;;;;;2622523;46;20037;31
2023/04/24 12:25:05;;;;;;;3.85;3.45;;;19.70;99.90;;;;;;2621867;46;20875;31
2023/04/24 12:27:40;;;;;;;6.80;3.13;;;19.60;99.90;;;;;;2603628;54;20027;31
2023/04/24 12:30:19;;;;;;;3.20;2.90;;;19.50;99.90;;;;;;2604020;54;20027;31
2023/04/24 12:33:03;;;;;;;5.68;3.85;;;19.30;99.90;;;;;;2603626;54;20030;31
2023/04/24 12:35:44;;;;;;;5.75;4.40;;;19.20;99.90;;;;;;2603732;54;20022;31
2023/04/24 12:38:25;;;;;;;4.03;3.25;;;19.10;99.90;;;;;;2603756;54;20692;31
2023/04/24 12:41:09;;;;;;;4.55;3.08;;;19.00;99.90;;;;;;2603595;54;20058;31
2023/04/24 12:43:57;;;;;;;5.25;3.50;;;18.90;99.90;;;;;;2603990;54;20093;31
2023/04/24 12:46:35;;;;;;;5.10;3.20;;;18.80;99.90;;;;;;2621985;46;20030;31
2023/04/24 12:49:18;;;;;;;3.60;3.05;;;18.60;99.90;;;;;;2603708;54;20098;31
2023/04/24 12:51:57;;;;;;;9.38;3.88;;;18.50;99.90;;;;;;2621978;46;20994;31
2023/04/24 12:54:36;;;;;;;8.25;4.30;;;18.30;99.90;;;;;;2622055;46;20109;31
2023/04/24 12:57:15;;;;;;;8.65;5.10;;;18.10;99.90;;;;;;2701412;39;21374;31
2023/04/24 12:59:57;;;;;;;6.45;5.28;;;18.00;99.90;;;;;;2622156;46;20145;31
2023/04/24 13:02:31;;;;;;;11.98;3.97;;;17.80;99.90;;;;;;2603837;54;20085;31
2023/04/24 13:05:20;;;;;;;2.83;1.67;;;17.60;99.90;;;;;;2702225;39;21575;31
2023/04/24 13:07:58;;;;;;;3.05;0.80;;;17.50;99.90;;;;;;2603801;54;20053;31
2023/04/24 13:10:38;;;;;;;2.72;1.08;;;17.20;99.90;;;;;;2702053;39;21281;31
2023/04/24 13:13:19;;;;;;;2.87;1.00;;;17.00;99.90;;;;;;2603791;54;20022;31
2023/04/24 13:16:02;;;;;;;4.03;1.15;;;17.00;99.90;;;;;;2622393;46;20378;31
2023/04/24 13:18:47;;;;;;;1.60;0.80;;;16.90;99.90;;;;;;2603692;54;20048;31
2023/04/24 13:21:30;;;;;;;2.75;1.00;;;16.80;99.90;;;;;;2603600;54;20022;31
2023/04/24 13:24:09;;;;;;;1.80;0.90;;;16.70;99.90;;;;;;2603674;54;20053;31
2023/04/24 13:29:27;;;;;;;1.75;0.93;;;16.60;99.90;;;;;;2603394;54;20891;31
2023/04/24 13:32:10;;;;;;;2.72;1.02;;;16.50;99.90;;;;;;2603608;54;20778;31
2023/04/24 13:37:24;;;;;;;5.70;1.35;;;16.40;99.90;;;;;;2603701;54;20122;31
2023/04/24 13:40:10;;;;;;;3.23;1.20;;;16.30;99.90;;;;;;2603385;54;20952;31
2023/04/24 13:42:44;;;;;;;1.48;0.82;;;16.20;99.90;;;;;;2622238;46;19934;31
2023/04/24 13:45:21;;;;;;;1.87;1.00;;;16.10;99.90;;;;;;2603507;54;20112;31
2023/04/24 13:48:02;;;;;;;2.35;0.85;;;16.10;99.90;;;;;;2621906;46;20884;31
2023/04/24 13:50:41;;;;;;;1.63;0.87;;;16.00;99.90;;;;;;2603431;54;21629;31
2023/04/24 13:53:29;;;;;;;3.15;0.90;;;16.00;99.90;;;;;;2603431;54;20049;31
2023/04/24 13:56:08;;;;;;;2.45;1.05;;;15.90;99.90;;;;;;2621803;46;20033;31
2023/04/24 13:58:44;;;;;;;4.27;0.80;;;15.80;99.90;;;;;;2603599;54;20594;31
2023/04/24 14:01:24;;;;;;;4.20;0.70;;;15.80;99.90;;;;;;2604812;46;20056;31
2023/04/24 14:04:06;;;;;;;5.22;0.70;;;15.70;99.90;;;;;;2603345;54;20333;31
2023/04/24 14:06:44;;;;;;;1.95;0.75;;;15.70;99.90;;;;;;2603609;54;20845;31
2023/04/24 14:09:27;;;;;;;2.65;0.80;;;15.60;99.90;;;;;;2603274;54;20056;31
2023/04/24 14:12:12;;;;;;;1.92;0.70;;;15.60;99.90;;;;;;2603440;54;20023;31
2023/04/24 14:14:50;;;;;;;2.00;1.10;;;15.60;99.90;;;;;;2603124;54;20746;31
2023/04/24 14:17:30;;;;;;;1.20;0.60;;;15.50;99.90;;;;;;2621594;46;21637;31
2023/04/24 14:20:09;;;;;;;1.52;0.65;;;15.50;99.90;;;;;;2603528;54;20980;31
2023/04/24 14:22:45;;;;;;;1.80;0.90;;;15.50;99.90;;;;;;2603533;54;20770;31
2023/04/24 14:25:28;;;;;;;1.95;0.80;;;15.50;99.90;;;;;;2603361;54;20133;31
2023/04/24 14:28:07;;;;;;;1.83;1.00;;;15.50;99.90;;;;;;2621495;46;20101;31
2023/04/24 14:30:47;;;;;;;1.77;0.77;;;15.50;99.90;;;;;;2603252;54;20893;31
2023/04/24 14:33:29;;;;;;;2.08;1.02;;;15.40;99.90;;;;;;2702239;39;21010;31
2023/04/24 14:36:08;;;;;;;1.77;1.20;;;15.50;99.90;;;;;;2701850;39;21444;31
2023/04/24 14:38:52;;;;;;;2.85;1.33;;;15.40;99.90;;;;;;2603535;54;20037;31
2023/04/24 14:41:35;;;;;;;1.88;1.17;;;15.30;99.90;;;;;;2606735;46;20577;31
2023/04/24 14:44:12;;;;;;;2.42;1.30;;;15.30;99.90;;;;;;2700869;39;20565;31
2023/04/24 14:52:33;;;;;;;2.10;1.60;;;15.20;99.90;;;;;;2603228;54;20037;31
2023/04/24 14:55:20;;;;;;;3.00;1.90;;;15.20;99.90;;;;;;2603114;54;20026;31
2023/04/24 14:58:05;;;;;;;5.97;2.20;;;15.20;99.90;;;;;;2622140;46;20846;31
2023/04/24 15:00:46;;;;;;;6.90;2.65;;;15.20;99.90;;;;;;2603313;54;20030;31
2023/04/24 15:03:23;;;;;;;3.45;2.40;;;15.10;99.90;;;;;;2603188;54;20045;31
2023/04/24 15:05:59;;;;;;;;;;;15.10;99.90;;;;;;2621594;46;20081;31
2023/04/24 15:08:38;;;;;;;6.07;3.42;;;15.10;99.90;;;;;;2782999;31;21545;31
2023/04/24 15:11:18;;;;;;;6.25;3.80;;;15.10;99.90;;;;;;2602477;54;20053;31
2023/04/24 15:14:00;;;;;;;7.40;3.88;;;15.00;99.90;;;;;;2602429;54;20056;31
2023/04/24 15:16:42;;;;;;;7.80;3.20;;;15.00;99.90;;;;;;2602484;54;20842;31
2023/04/24 15:19:24;;;;;;;5.88;3.58;;;14.90;99.90;;;;;;2606219;46;22441;31
2023/04/24 15:22:01;;;;;;;8.10;3.40;;;14.90;99.90;;;;;;2607338;46;20600;31
2023/04/24 15:24:40;;;;;;;7.38;4.20;;;14.90;99.90;;;;;;2602139;54;20029;31
2023/04/24 15:27:23;;;;;;;11.30;3.95;;;14.80;99.90;;;;;;2602521;54;20883;31
2023/04/24 15:30:05;;;;;;;4.97;3.58;;;14.80;99.90;;;;;;2607165;46;20879;31
2023/04/24 15:32:47;;;;;;;5.45;3.13;;;14.70;99.90;;;;;;2602300;54;20754;31
2023/04/24 15:35:28;;;;;;;4.63;3.23;;;14.70;99.90;;;;;;2607552;46;20023;31
2023/04/24 15:38:06;;;;;;;3.75;2.53;;;14.60;99.90;;;;;;2602540;54;20827;31
2023/04/24 15:40:44;;;;;;;5.40;2.50;;;14.60;99.90;;;;;;2610519;46;20038;31
2023/04/24 15:43:23;;;;;;;6.78;2.65;;;14.50;99.90;;;;;;2611127;46;20026;31
2023/04/24 15:46:08;;;;;;;3.10;2.37;;;14.40;99.90;;;;;;2603077;54;20034;31
2023/04/24 15:48:53;;;;;;;2.75;1.48;;;14.40;99.90;;;;;;2603174;54;20101;31
2023/04/24 15:51:46;;;;;;;2.57;1.63;;;14.30;99.90;;;;;;2603272;54;20756;31
2023/04/24 15:54:26;;;;;;;6.22;2.53;;;14.30;99.90;;;;;;2603099;54;21008;31
2023/04/24 15:57:03;;;;;;;2.55;1.30;;;14.20;99.90;;;;;;2603004;54;20049;31
2023/04/24 15:59:45;;;;;;;3.38;1.38;;;14.20;99.90;;;;;;2602178;54;20092;31
2023/04/24 16:02:28;;;;;;;2.40;1.55;;;14.20;99.90;;;;;;2603219;54;20030;31
2023/04/24 16:05:12;;;;;;;2.55;1.45;;;14.20;99.90;;;;;;2701090;39;20541;31
2023/04/24 16:07:52;;;;;;;3.05;1.65;;;14.20;99.90;;;;;;2701405;39;20580;31
2023/04/24 16:13:07;;;;;;;;;;;14.20;99.90;;;;;;2602494;54;20034;31
2023/04/24 16:15:48;;;;;;;3.40;1.80;;;14.20;99.90;;;;;;2602168;54;19950;31
2023/04/24 16:18:31;;;;;;;3.57;2.10;;;14.10;99.90;;;;;;2602764;54;20026;31
2023/04/24 16:21:13;;;;;;;3.15;1.70;;;14.10;99.90;;;;;;2621550;47;20362;31
2023/04/24 16:23:54;;;;;;;2.60;1.60;;;14.10;99.90;;;;;;2602711;54;20086;31
2023/04/24 16:26:30;;;;;;;3.00;2.25;;;14.10;99.90;;;;;;2701377;39;21530;31
2023/04/24 16:29:10;;;;;;;5.50;2.45;;;14.20;99.90;;;;;;2603215;54;20022;31
2023/04/24 16:31:51;;;;;;;5.50;2.70;;;14.20;99.90;;;;;;2621685;47;20037;31
2023/04/24 16:34:29;;;;;;;4.38;2.85;;;14.10;99.90;;;;;;2701517;39;21512;31
2023/04/24 16:37:11;;;;;;;5.73;3.07;;;14.10;99.90;;;;;;2612849;47;20042;31
2023/04/24 16:39:49;;;;;;;5.25;2.40;;;14.10;99.90;;;;;;2602896;54;20076;31
2023/04/24 16:42:35;;;;;;;4.50;2.75;;;14.10;99.90;;;;;;2602698;54;20042;31
2023/04/24 16:45:15;;;;;;;4.45;2.40;;;14.00;99.90;;;;;;2603057;54;20884;31
2023/04/24 16:48:02;;;;;;;5.82;2.75;;;14.00;99.90;;;;;;2602634;54;20022;31
2023/04/24 16:50:44;;;;;;;4.65;2.95;;;14.00;99.90;;;;;;2602994;54;20847;31
2023/04/24 16:53:31;;;;;;;6.05;3.30;;;13.90;99.90;;;;;;2602897;54;19965;31
2023/04/24 16:56:11;;;;;;;6.53;3.90;;;14.00;99.90;;;;;;2603510;54;20077;31
2023/04/24 16:58:45;;;;;;;5.30;3.63;;;13.90;99.90;;;;;;2622153;46;20022;31
2023/04/24 17:04:26;;;;;;;9.10;4.87;;;13.90;99.90;;;;;;2622301;46;20238;31
2023/04/24 17:10:30;;;;;;;6.55;4.40;;;13.80;99.90;;;;;;2603747;54;20774;31
2023/04/24 17:13:16;;;;;;;8.05;4.05;;;13.80;99.90;;;;;;2720659;39;20493;31
2023/04/24 17:15:58;;;;;;;8.15;4.90;;;13.70;99.90;;;;;;2604037;54;20022;31
2023/04/24 17:18:43;;;;;;;6.50;3.93;;;13.70;99.90;;;;;;2603791;54;20041;31
2023/04/24 17:21:30;;;;;;;8.40;5.00;;;13.70;99.90;;;;;;2621911;46;21830;31
2023/04/24 17:24:30;;;;;;;9.20;8.10;;;13.70;99.90;;;;;;2603546;54;20085;31
2023/04/24 17:27:26;;;;;;;12.67;11.27;;;13.70;99.90;;;;;;2602848;54;21567;31
2023/04/24 17:30:25;;;;;;;10.50;8.67;;;13.70;99.90;;;;;;2602807;54;20306;31
2023/04/24 17:33:15;;;;;;;9.05;7.45;;;13.70;99.90;;;;;;2603618;54;20042;31
2023/04/24 17:36:00;;;;;;;10.40;9.30;;;13.70;99.90;;;;;;2702273;39;21564;31
2023/04/24 17:38:37;;;;;;;9.98;8.65;;;13.80;99.90;;;;;;2603316;54;20349;31
2023/04/24 17:41:15;;;;;;;11.70;9.30;;;13.80;99.90;;;;;;2603560;54;20029;31
2023/04/24 17:44:00;;;;;;;11.50;8.48;;;13.80;99.90;;;;;;2603779;54;20027;31
2023/04/24 17:46:43;;;;;;;8.80;6.95;;;13.70;99.90;;;;;;2622054;46;20037;31
2023/04/24 17:49:25;;;;;;;11.23;8.93;;;13.70;99.90;;;;;;2603550;54;20132;31
2023/04/24 17:52:05;;;;;;;11.43;8.13;;;13.60;99.90;;;;;;2603387;54;20941;31
2023/04/24 17:54:43;;;;;;;14.90;9.17;;;13.60;99.90;;;;;;2603560;54;21232;31
2023/04/24 17:57:35;;;;;;;15.90;10.93;;;13.60;99.90;;;;;;2603547;54;20305;31
2023/04/24 18:00:18;;;;;;;14.23;10.90;;;13.60;99.90;;;;;;2621966;46;20032;31
2023/04/24 18:02:59;;;;;;;14.50;11.20;;;13.60;99.90;;;;;;2603538;54;20023;31
2023/04/24 18:05:38;;;;;;;14.00;11.10;;;13.60;99.90;;;;;;2603485;54;20872;31
2023/04/24 18:08:17;;;;;;;14.32;12.05;;;13.50;99.90;;;;;;2603476;54;20944;31
2023/04/24 18:11:01;;;;;;;27.47;18.77;;;13.50;99.90;;;;;;2621795;46;20030;31
2023/04/24 18:13:40;;;;;;;26.83;18.58;;;13.40;99.90;;;;;;2603549;54;20754;31
2023/04/24 18:16:20;;;;;;;22.58;14.55;;;13.40;99.90;;;;;;2701997;39;20491;31
2023/04/24 18:19:04;;;;;;;17.00;10.40;;;13.30;99.90;;;;;;2603226;54;20960;31
2023/04/24 18:21:41;;;;;;;17.35;10.70;;;13.30;99.90;;;;;;2622206;46;20026;31
2023/04/24 18:24:21;;;;;;;20.40;11.05;;;13.30;99.90;;;;;;2603105;54;20845;31
2023/04/24 18:26:58;;;;;;;19.55;11.70;;;13.30;99.90;;;;;;2603463;54;20026;31
2023/04/24 18:29:41;;;;;;;15.83;10.83;;;13.30;99.90;;;;;;2621845;46;20091;31
2023/04/24 18:32:24;;;;;;;13.83;8.67;;;13.30;99.90;;;;;;2621568;46;20762;31